sensor_id;sensor_type;location;lat;lon;timestamp;temperature;humidity
84330;SHT31;74510;42.676;23.432;2024-03-17T00:00:21;5.06;83.34
84330;SHT31;74510;42.676;23.432;2024-03-17T00:02:46;5.06;83.43
84330;SHT31;74510;42.676;23.432;2024-03-17T00:05:12;5.01;83.48
84330;SHT31;74510;42.676;23.432;2024-03-17T00:07:41;5.00;83.59
84330;SHT31;74510;42.676;23.432;2024-03-17T00:10:07;4.99;83.64
84330;SHT31;74510;42.676;23.432;2024-03-17T00:12:34;4.96;83.73
84330;SHT31;74510;42.676;23.432;2024-03-17T00:14:59;4.93;83.64
84330;SHT31;74510;42.676;23.432;2024-03-17T00:17:25;4.89;83.88
84330;SHT31;74510;42.676;23.432;2024-03-17T00:19:50;4.83;84.14
84330;SHT31;74510;42.676;23.432;2024-03-17T00:22:16;4.83;84.14
84330;SHT31;74510;42.676;23.432;2024-03-17T00:24:43;4.79;84.16
84330;SHT31;74510;42.676;23.432;2024-03-17T00:27:09;4.82;84.03
84330;SHT31;74510;42.676;23.432;2024-03-17T00:29:35;4.77;84.03
84330;SHT31;74510;42.676;23.432;2024-03-17T00:32:00;4.96;83.61
84330;SHT31;74510;42.676;23.432;2024-03-17T00:34:25;4.76;83.97
84330;SHT31;74510;42.676;23.432;2024-03-17T00:36:51;4.76;84.03
84330;SHT31;74510;42.676;23.432;2024-03-17T00:39:17;4.66;84.27
84330;SHT31;74510;42.676;23.432;2024-03-17T00:41:43;4.58;84.79
84330;SHT31;74510;42.676;23.432;2024-03-17T00:44:09;4.55;84.99
84330;SHT31;74510;42.676;23.432;2024-03-17T00:46:34;4.52;85.49
84330;SHT31;74510;42.676;23.432;2024-03-17T00:49:00;4.55;85.21
84330;SHT31;74510;42.676;23.432;2024-03-17T00:51:26;4.52;85.48
84330;SHT31;74510;42.676;23.432;2024-03-17T00:53:51;4.53;85.31
84330;SHT31;74510;42.676;23.432;2024-03-17T00:56:17;4.52;85.33
84330;SHT31;74510;42.676;23.432;2024-03-17T00:58:42;4.46;85.51
84330;SHT31;74510;42.676;23.432;2024-03-17T01:01:09;4.38;85.63
84330;SHT31;74510;42.676;23.432;2024-03-17T01:03:35;4.38;85.89
84330;SHT31;74510;42.676;23.432;2024-03-17T01:06:05;4.41;85.94
84330;SHT31;74510;42.676;23.432;2024-03-17T01:08:31;4.62;85.26
84330;SHT31;74510;42.676;23.432;2024-03-17T01:10:57;4.55;85.38
84330;SHT31;74510;42.676;23.432;2024-03-17T01:13:23;4.51;85.46
84330;SHT31;74510;42.676;23.432;2024-03-17T01:15:51;4.62;85.17
84330;SHT31;74510;42.676;23.432;2024-03-17T01:18:17;4.56;84.57
84330;SHT31;74510;42.676;23.432;2024-03-17T01:20:44;4.48;85.23
84330;SHT31;74510;42.676;23.432;2024-03-17T01:23:09;4.44;85.02
84330;SHT31;74510;42.676;23.432;2024-03-17T01:25:35;4.34;85.27
84330;SHT31;74510;42.676;23.432;2024-03-17T01:28:04;4.38;85.20
84330;SHT31;74510;42.676;23.432;2024-03-17T01:30:30;4.35;85.76
84330;SHT31;74510;42.676;23.432;2024-03-17T01:32:55;4.31;85.17
84330;SHT31;74510;42.676;23.432;2024-03-17T01:35:21;4.22;85.90
84330;SHT31;74510;42.676;23.432;2024-03-17T01:37:48;4.15;86.28
84330;SHT31;74510;42.676;23.432;2024-03-17T01:40:14;4.14;85.89
84330;SHT31;74510;42.676;23.432;2024-03-17T01:42:41;4.08;86.21
84330;SHT31;74510;42.676;23.432;2024-03-17T01:47:54;4.08;86.04
84330;SHT31;74510;42.676;23.432;2024-03-17T01:50:20;4.05;86.56
84330;SHT31;74510;42.676;23.432;2024-03-17T01:52:56;4.07;86.50
84330;SHT31;74510;42.676;23.432;2024-03-17T01:55:25;4.11;86.40
84330;SHT31;74510;42.676;23.432;2024-03-17T01:57:51;4.10;86.33
84330;SHT31;74510;42.676;23.432;2024-03-17T02:00:17;4.15;86.10
84330;SHT31;74510;42.676;23.432;2024-03-17T02:02:42;4.05;86.34
84330;SHT31;74510;42.676;23.432;2024-03-17T02:05:08;4.01;86.35
84330;SHT31;74510;42.676;23.432;2024-03-17T02:07:33;4.00;86.58
84330;SHT31;74510;42.676;23.432;2024-03-17T02:09:59;4.01;86.09
84330;SHT31;74510;42.676;23.432;2024-03-17T02:12:25;3.96;86.28
84330;SHT31;74510;42.676;23.432;2024-03-17T02:14:50;3.93;86.69
84330;SHT31;74510;42.676;23.432;2024-03-17T02:17:16;3.97;86.73
84330;SHT31;74510;42.676;23.432;2024-03-17T02:19:42;3.87;87.03
84330;SHT31;74510;42.676;23.432;2024-03-17T02:22:13;3.86;87.25
84330;SHT31;74510;42.676;23.432;2024-03-17T02:24:38;3.91;87.07
84330;SHT31;74510;42.676;23.432;2024-03-17T02:27:04;3.86;87.45
84330;SHT31;74510;42.676;23.432;2024-03-17T02:29:29;3.80;87.60
84330;SHT31;74510;42.676;23.432;2024-03-17T02:31:55;3.76;87.79
84330;SHT31;74510;42.676;23.432;2024-03-17T02:34:20;3.73;88.38
84330;SHT31;74510;42.676;23.432;2024-03-17T02:36:46;3.73;88.74
84330;SHT31;74510;42.676;23.432;2024-03-17T02:39:12;3.62;89.31
84330;SHT31;74510;42.676;23.432;2024-03-17T02:42:15;3.54;89.05
84330;SHT31;74510;42.676;23.432;2024-03-17T02:44:41;3.56;88.71
84330;SHT31;74510;42.676;23.432;2024-03-17T02:47:06;3.54;88.68
84330;SHT31;74510;42.676;23.432;2024-03-17T02:49:36;3.51;88.64
84330;SHT31;74510;42.676;23.432;2024-03-17T02:52:06;3.40;88.50
84330;SHT31;74510;42.676;23.432;2024-03-17T02:54:34;3.32;88.69
84330;SHT31;74510;42.676;23.432;2024-03-17T02:57:00;3.54;87.22
84330;SHT31;74510;42.676;23.432;2024-03-17T02:59:26;3.46;87.61
84330;SHT31;74510;42.676;23.432;2024-03-17T03:01:52;3.43;88.28
84330;SHT31;74510;42.676;23.432;2024-03-17T03:04:17;3.39;88.24
84330;SHT31;74510;42.676;23.432;2024-03-17T03:06:42;3.67;86.45
84330;SHT31;74510;42.676;23.432;2024-03-17T03:09:08;3.48;86.98
84330;SHT31;74510;42.676;23.432;2024-03-17T03:11:41;3.34;87.60
84330;SHT31;74510;42.676;23.432;2024-03-17T03:14:07;3.45;87.18
84330;SHT31;74510;42.676;23.432;2024-03-17T03:16:32;3.34;87.38
84330;SHT31;74510;42.676;23.432;2024-03-17T03:18:58;3.38;87.54
84330;SHT31;74510;42.676;23.432;2024-03-17T03:21:24;3.32;87.92
84330;SHT31;74510;42.676;23.432;2024-03-17T03:23:49;3.32;88.42
84330;SHT31;74510;42.676;23.432;2024-03-17T03:26:15;3.25;89.14
84330;SHT31;74510;42.676;23.432;2024-03-17T03:28:40;3.34;88.96
84330;SHT31;74510;42.676;23.432;2024-03-17T03:31:06;3.29;88.95
84330;SHT31;74510;42.676;23.432;2024-03-17T03:33:35;3.35;88.98
84330;SHT31;74510;42.676;23.432;2024-03-17T03:36:11;3.38;88.20
84330;SHT31;74510;42.676;23.432;2024-03-17T03:38:36;3.32;88.47
84330;SHT31;74510;42.676;23.432;2024-03-17T03:41:15;3.22;88.82
84330;SHT31;74510;42.676;23.432;2024-03-17T03:43:41;3.21;89.03
84330;SHT31;74510;42.676;23.432;2024-03-17T03:46:08;3.19;89.17
84330;SHT31;74510;42.676;23.432;2024-03-17T03:48:34;3.25;88.97
84330;SHT31;74510;42.676;23.432;2024-03-17T03:51:04;3.25;88.65
84330;SHT31;74510;42.676;23.432;2024-03-17T03:53:30;3.24;88.63
84330;SHT31;74510;42.676;23.432;2024-03-17T03:55:56;3.19;88.91
84330;SHT31;74510;42.676;23.432;2024-03-17T03:58:21;3.18;88.81
84330;SHT31;74510;42.676;23.432;2024-03-17T04:00:47;3.09;89.03
84330;SHT31;74510;42.676;23.432;2024-03-17T04:03:12;3.05;89.38
84330;SHT31;74510;42.676;23.432;2024-03-17T04:05:37;3.05;89.46
84330;SHT31;74510;42.676;23.432;2024-03-17T04:08:04;3.05;89.94
84330;SHT31;74510;42.676;23.432;2024-03-17T04:10:30;2.98;90.45
84330;SHT31;74510;42.676;23.432;2024-03-17T04:12:55;3.07;90.54
84330;SHT31;74510;42.676;23.432;2024-03-17T04:15:22;3.01;90.79
84330;SHT31;74510;42.676;23.432;2024-03-17T04:17:47;3.05;91.15
84330;SHT31;74510;42.676;23.432;2024-03-17T04:20:13;3.12;91.42
84330;SHT31;74510;42.676;23.432;2024-03-17T04:22:42;3.17;91.21
84330;SHT31;74510;42.676;23.432;2024-03-17T04:25:13;3.12;90.87
84330;SHT31;74510;42.676;23.432;2024-03-17T04:27:38;3.08;90.50
84330;SHT31;74510;42.676;23.432;2024-03-17T04:30:05;3.32;89.49
84330;SHT31;74510;42.676;23.432;2024-03-17T04:32:31;3.36;87.65
84330;SHT31;74510;42.676;23.432;2024-03-17T04:34:57;3.19;88.31
84330;SHT31;74510;42.676;23.432;2024-03-17T04:37:22;3.24;87.53
84330;SHT31;74510;42.676;23.432;2024-03-17T04:39:48;3.29;86.82
84330;SHT31;74510;42.676;23.432;2024-03-17T04:42:15;3.15;87.63
84330;SHT31;74510;42.676;23.432;2024-03-17T04:44:41;3.00;88.11
84330;SHT31;74510;42.676;23.432;2024-03-17T04:47:07;2.91;88.69
84330;SHT31;74510;42.676;23.432;2024-03-17T04:49:41;2.86;88.80
84330;SHT31;74510;42.676;23.432;2024-03-17T04:52:07;2.83;89.15
84330;SHT31;74510;42.676;23.432;2024-03-17T04:54:33;2.83;89.44
84330;SHT31;74510;42.676;23.432;2024-03-17T04:56:58;2.80;89.44
84330;SHT31;74510;42.676;23.432;2024-03-17T04:59:24;2.86;89.63
84330;SHT31;74510;42.676;23.432;2024-03-17T05:01:49;2.81;89.75
84330;SHT31;74510;42.676;23.432;2024-03-17T05:04:15;3.01;89.42
84330;SHT31;74510;42.676;23.432;2024-03-17T05:06:40;3.31;88.52
84330;SHT31;74510;42.676;23.432;2024-03-17T05:09:08;3.35;88.46
84330;SHT31;74510;42.676;23.432;2024-03-17T05:11:33;3.39;87.83
84330;SHT31;74510;42.676;23.432;2024-03-17T05:14:00;3.31;88.20
84330;SHT31;74510;42.676;23.432;2024-03-17T05:16:26;3.19;88.90
84330;SHT31;74510;42.676;23.432;2024-03-17T05:18:54;3.42;88.32
84330;SHT31;74510;42.676;23.432;2024-03-17T05:21:20;3.39;88.18
84330;SHT31;74510;42.676;23.432;2024-03-17T05:23:45;3.49;88.25
84330;SHT31;74510;42.676;23.432;2024-03-17T05:26:10;3.45;88.46
84330;SHT31;74510;42.676;23.432;2024-03-17T05:28:36;3.56;88.53
84330;SHT31;74510;42.676;23.432;2024-03-17T05:31:01;3.55;88.87
84330;SHT31;74510;42.676;23.432;2024-03-17T05:33:27;3.63;88.96
84330;SHT31;74510;42.676;23.432;2024-03-17T05:35:54;3.84;88.68
84330;SHT31;74510;42.676;23.432;2024-03-17T05:38:23;4.00;88.10
84330;SHT31;74510;42.676;23.432;2024-03-17T05:43:19;4.07;88.39
84330;SHT31;74510;42.676;23.432;2024-03-17T05:45:44;4.22;88.64
84330;SHT31;74510;42.676;23.432;2024-03-17T05:48:09;4.25;88.31
84330;SHT31;74510;42.676;23.432;2024-03-17T05:50:35;4.30;88.06
84330;SHT31;74510;42.676;23.432;2024-03-17T05:53:00;4.45;87.95
84330;SHT31;74510;42.676;23.432;2024-03-17T05:55:25;4.48;86.82
84330;SHT31;74510;42.676;23.432;2024-03-17T05:57:51;4.59;86.75
84330;SHT31;74510;42.676;23.432;2024-03-17T06:00:16;4.66;86.56
84330;SHT31;74510;42.676;23.432;2024-03-17T06:02:43;4.75;86.65
84330;SHT31;74510;42.676;23.432;2024-03-17T06:05:09;4.79;85.90
84330;SHT31;74510;42.676;23.432;2024-03-17T06:07:37;4.75;85.86
84330;SHT31;74510;42.676;23.432;2024-03-17T06:10:03;4.83;86.11
84330;SHT31;74510;42.676;23.432;2024-03-17T06:12:28;4.84;86.38
84330;SHT31;74510;42.676;23.432;2024-03-17T06:14:55;4.96;86.06
84330;SHT31;74510;42.676;23.432;2024-03-17T06:17:21;5.09;85.59
84330;SHT31;74510;42.676;23.432;2024-03-17T06:19:46;5.07;85.05
84330;SHT31;74510;42.676;23.432;2024-03-17T06:22:12;4.96;85.53
84330;SHT31;74510;42.676;23.432;2024-03-17T06:24:37;5.01;85.12
84330;SHT31;74510;42.676;23.432;2024-03-17T06:27:03;5.10;85.31
84330;SHT31;74510;42.676;23.432;2024-03-17T06:29:28;5.27;85.61
84330;SHT31;74510;42.676;23.432;2024-03-17T06:31:54;5.31;85.38
84330;SHT31;74510;42.676;23.432;2024-03-17T06:34:20;5.40;84.81
84330;SHT31;74510;42.676;23.432;2024-03-17T06:36:47;5.42;84.99
84330;SHT31;74510;42.676;23.432;2024-03-17T06:39:13;5.52;85.30
84330;SHT31;74510;42.676;23.432;2024-03-17T06:41:43;5.65;84.54
84330;SHT31;74510;42.676;23.432;2024-03-17T06:44:09;5.75;84.85
84330;SHT31;74510;42.676;23.432;2024-03-17T06:46:34;5.96;84.15
84330;SHT31;74510;42.676;23.432;2024-03-17T06:49:00;6.09;83.32
84330;SHT31;74510;42.676;23.432;2024-03-17T06:51:25;6.20;82.75
84330;SHT31;74510;42.676;23.432;2024-03-17T06:53:51;6.27;82.46
84330;SHT31;74510;42.676;23.432;2024-03-17T06:56:16;6.38;82.66
84330;SHT31;74510;42.676;23.432;2024-03-17T06:58:41;6.40;82.62
84330;SHT31;74510;42.676;23.432;2024-03-17T07:01:08;6.54;82.08
84330;SHT31;74510;42.676;23.432;2024-03-17T07:03:34;6.68;81.88
84330;SHT31;74510;42.676;23.432;2024-03-17T07:06:01;6.63;80.98
84330;SHT31;74510;42.676;23.432;2024-03-17T07:08:30;6.63;81.43
84330;SHT31;74510;42.676;23.432;2024-03-17T07:11:00;6.82;80.95
84330;SHT31;74510;42.676;23.432;2024-03-17T07:13:30;7.06;80.39
84330;SHT31;74510;42.676;23.432;2024-03-17T07:15:56;7.28;79.60
84330;SHT31;74510;42.676;23.432;2024-03-17T07:18:21;7.58;78.36
84330;SHT31;74510;42.676;23.432;2024-03-17T07:20:47;7.78;77.78
84330;SHT31;74510;42.676;23.432;2024-03-17T07:23:14;7.95;76.41
84330;SHT31;74510;42.676;23.432;2024-03-17T07:25:40;8.01;75.86
84330;SHT31;74510;42.676;23.432;2024-03-17T07:28:06;8.10;75.84
84330;SHT31;74510;42.676;23.432;2024-03-17T07:30:31;8.26;75.50
84330;SHT31;74510;42.676;23.432;2024-03-17T07:32:57;8.19;74.38
84330;SHT31;74510;42.676;23.432;2024-03-17T07:35:23;8.34;74.68
84330;SHT31;74510;42.676;23.432;2024-03-17T07:37:48;8.16;76.90
84330;SHT31;74510;42.676;23.432;2024-03-17T07:40:14;7.81;77.20
84330;SHT31;74510;42.676;23.432;2024-03-17T07:42:40;7.74;78.07
84330;SHT31;74510;42.676;23.432;2024-03-17T07:45:06;7.89;78.04
84330;SHT31;74510;42.676;23.432;2024-03-17T07:47:33;7.92;77.49
84330;SHT31;74510;42.676;23.432;2024-03-17T07:50:04;8.03;77.09
84330;SHT31;74510;42.676;23.432;2024-03-17T07:52:33;8.10;76.49
84330;SHT31;74510;42.676;23.432;2024-03-17T07:54:58;8.13;76.25
84330;SHT31;74510;42.676;23.432;2024-03-17T07:57:24;8.22;74.45
84330;SHT31;74510;42.676;23.432;2024-03-17T07:59:50;8.23;74.91
84330;SHT31;74510;42.676;23.432;2024-03-17T08:02:16;8.30;75.01
84330;SHT31;74510;42.676;23.432;2024-03-17T08:04:42;8.33;75.68
84330;SHT31;74510;42.676;23.432;2024-03-17T08:07:09;8.40;74.75
84330;SHT31;74510;42.676;23.432;2024-03-17T08:09:35;8.39;73.95
84330;SHT31;74510;42.676;23.432;2024-03-17T08:12:00;8.57;74.87
84330;SHT31;74510;42.676;23.432;2024-03-17T08:14:27;8.78;73.75
84330;SHT31;74510;42.676;23.432;2024-03-17T08:16:52;8.75;72.52
84330;SHT31;74510;42.676;23.432;2024-03-17T08:19:18;8.99;71.94
84330;SHT31;74510;42.676;23.432;2024-03-17T08:21:43;8.88;71.41
84330;SHT31;74510;42.676;23.432;2024-03-17T08:24:10;8.91;72.62
84330;SHT31;74510;42.676;23.432;2024-03-17T08:26:35;8.99;72.40
84330;SHT31;74510;42.676;23.432;2024-03-17T08:29:01;9.11;72.12
84330;SHT31;74510;42.676;23.432;2024-03-17T08:31:26;9.12;71.48
84330;SHT31;74510;42.676;23.432;2024-03-17T08:33:52;9.23;69.78
84330;SHT31;74510;42.676;23.432;2024-03-17T08:36:18;9.40;69.76
84330;SHT31;74510;42.676;23.432;2024-03-17T08:38:45;9.42;70.59
84330;SHT31;74510;42.676;23.432;2024-03-17T08:41:10;9.36;69.51
84330;SHT31;74510;42.676;23.432;2024-03-17T08:43:36;9.47;68.90
84330;SHT31;74510;42.676;23.432;2024-03-17T08:46:04;9.66;68.98
84330;SHT31;74510;42.676;23.432;2024-03-17T08:48:32;9.38;69.29
84330;SHT31;74510;42.676;23.432;2024-03-17T08:50:59;9.30;69.10
84330;SHT31;74510;42.676;23.432;2024-03-17T08:53:26;9.40;69.29
84330;SHT31;74510;42.676;23.432;2024-03-17T08:55:52;9.56;69.11
84330;SHT31;74510;42.676;23.432;2024-03-17T08:58:17;9.76;68.09
84330;SHT31;74510;42.676;23.432;2024-03-17T09:00:43;9.74;68.64
84330;SHT31;74510;42.676;23.432;2024-03-17T09:03:09;10.18;67.52
84330;SHT31;74510;42.676;23.432;2024-03-17T09:05:39;10.41;66.72
84330;SHT31;74510;42.676;23.432;2024-03-17T09:08:06;10.66;63.86
84330;SHT31;74510;42.676;23.432;2024-03-17T09:10:39;10.45;65.37
84330;SHT31;74510;42.676;23.432;2024-03-17T09:13:04;10.87;64.46
84330;SHT31;74510;42.676;23.432;2024-03-17T09:15:30;10.96;60.21
84330;SHT31;74510;42.676;23.432;2024-03-17T09:17:55;11.46;60.39
84330;SHT31;74510;42.676;23.432;2024-03-17T09:20:21;11.61;60.68
84330;SHT31;74510;42.676;23.432;2024-03-17T09:22:46;11.79;59.69
84330;SHT31;74510;42.676;23.432;2024-03-17T09:25:11;11.99;61.12
84330;SHT31;74510;42.676;23.432;2024-03-17T09:27:37;12.37;59.59
84330;SHT31;74510;42.676;23.432;2024-03-17T09:30:06;12.31;57.76
84330;SHT31;74510;42.676;23.432;2024-03-17T09:32:37;12.37;57.53
84330;SHT31;74510;42.676;23.432;2024-03-17T09:35:04;12.14;58.51
84330;SHT31;74510;42.676;23.432;2024-03-17T09:37:30;12.07;58.90
84330;SHT31;74510;42.676;23.432;2024-03-17T09:39:57;12.21;58.45
84330;SHT31;74510;42.676;23.432;2024-03-17T09:42:23;12.28;57.06
84330;SHT31;74510;42.676;23.432;2024-03-17T09:44:50;12.55;58.23
84330;SHT31;74510;42.676;23.432;2024-03-17T09:47:21;12.64;56.19
84330;SHT31;74510;42.676;23.432;2024-03-17T09:49:48;12.47;55.45
84330;SHT31;74510;42.676;23.432;2024-03-17T09:52:20;12.66;56.55
84330;SHT31;74510;42.676;23.432;2024-03-17T09:54:46;12.88;54.31
84330;SHT31;74510;42.676;23.432;2024-03-17T09:57:17;12.97;54.02
84330;SHT31;74510;42.676;23.432;2024-03-17T09:59:42;12.93;51.92
84330;SHT31;74510;42.676;23.432;2024-03-17T10:02:16;12.99;52.29
84330;SHT31;74510;42.676;23.432;2024-03-17T10:04:43;13.42;52.57
84330;SHT31;74510;42.676;23.432;2024-03-17T10:07:08;13.46;51.42
84330;SHT31;74510;42.676;23.432;2024-03-17T10:09:34;13.75;49.34
84330;SHT31;74510;42.676;23.432;2024-03-17T10:11:59;13.84;48.13
84330;SHT31;74510;42.676;23.432;2024-03-17T10:14:25;13.85;44.55
84330;SHT31;74510;42.676;23.432;2024-03-17T10:16:50;13.61;46.48
84330;SHT31;74510;42.676;23.432;2024-03-17T10:19:22;13.48;46.67
84330;SHT31;74510;42.676;23.432;2024-03-17T10:21:48;13.54;47.82
84330;SHT31;74510;42.676;23.432;2024-03-17T10:26:49;13.75;44.84
84330;SHT31;74510;42.676;23.432;2024-03-17T10:29:35;14.28;45.75
84330;SHT31;74510;42.676;23.432;2024-03-17T10:32:13;14.06;46.09
84330;SHT31;74510;42.676;23.432;2024-03-17T10:34:39;13.99;45.94
84330;SHT31;74510;42.676;23.432;2024-03-17T10:39:33;14.09;45.37
84330;SHT31;74510;42.676;23.432;2024-03-17T10:42:01;14.19;43.23
84330;SHT31;74510;42.676;23.432;2024-03-17T10:44:27;13.98;45.50
84330;SHT31;74510;42.676;23.432;2024-03-17T10:46:55;13.72;47.05
84330;SHT31;74510;42.676;23.432;2024-03-17T10:49:25;13.63;47.54
84330;SHT31;74510;42.676;23.432;2024-03-17T10:51:57;13.92;48.22
84330;SHT31;74510;42.676;23.432;2024-03-17T10:54:26;14.06;44.99
84330;SHT31;74510;42.676;23.432;2024-03-17T10:56:55;14.29;45.29
84330;SHT31;74510;42.676;23.432;2024-03-17T10:59:28;14.34;45.28
84330;SHT31;74510;42.676;23.432;2024-03-17T11:01:59;14.59;42.31
84330;SHT31;74510;42.676;23.432;2024-03-17T11:04:26;14.57;42.32
84330;SHT31;74510;42.676;23.432;2024-03-17T11:06:52;14.68;41.93
84330;SHT31;74510;42.676;23.432;2024-03-17T11:09:18;14.56;43.83
84330;SHT31;74510;42.676;23.432;2024-03-17T11:11:43;14.46;42.03
84330;SHT31;74510;42.676;23.432;2024-03-17T11:14:19;14.15;41.99
84330;SHT31;74510;42.676;23.432;2024-03-17T11:16:51;14.04;42.03
84330;SHT31;74510;42.676;23.432;2024-03-17T11:19:17;14.25;42.08
84330;SHT31;74510;42.676;23.432;2024-03-17T11:21:43;14.08;42.95
84330;SHT31;74510;42.676;23.432;2024-03-17T11:24:21;13.95;43.42
84330;SHT31;74510;42.676;23.432;2024-03-17T11:26:47;13.91;43.81
84330;SHT31;74510;42.676;23.432;2024-03-17T11:29:29;14.20;44.69
84330;SHT31;74510;42.676;23.432;2024-03-17T11:31:55;14.40;44.96
84330;SHT31;74510;42.676;23.432;2024-03-17T11:34:34;14.30;42.90
84330;SHT31;74510;42.676;23.432;2024-03-17T11:37:01;14.18;45.34
84330;SHT31;74510;42.676;23.432;2024-03-17T11:39:54;14.08;45.93
84330;SHT31;74510;42.676;23.432;2024-03-17T11:42:23;14.06;48.19
84330;SHT31;74510;42.676;23.432;2024-03-17T11:45:00;14.18;47.22
84330;SHT31;74510;42.676;23.432;2024-03-17T11:47:38;14.29;45.89
84330;SHT31;74510;42.676;23.432;2024-03-17T11:50:05;14.34;48.29
84330;SHT31;74510;42.676;23.432;2024-03-17T11:52:30;14.11;48.35
84330;SHT31;74510;42.676;23.432;2024-03-17T11:54:56;13.98;48.26
84330;SHT31;74510;42.676;23.432;2024-03-17T11:57:26;13.88;49.12
84330;SHT31;74510;42.676;23.432;2024-03-17T11:59:53;13.84;47.62
84330;SHT31;74510;42.676;23.432;2024-03-17T12:04:48;13.94;46.50
84330;SHT31;74510;42.676;23.432;2024-03-17T12:07:16;14.02;45.53
84330;SHT31;74510;42.676;23.432;2024-03-17T12:09:43;13.99;45.55
84330;SHT31;74510;42.676;23.432;2024-03-17T12:12:20;13.99;45.39
84330;SHT31;74510;42.676;23.432;2024-03-17T12:14:47;14.11;46.02
84330;SHT31;74510;42.676;23.432;2024-03-17T12:17:14;14.25;45.49
84330;SHT31;74510;42.676;23.432;2024-03-17T12:19:40;14.19;46.79
84330;SHT31;74510;42.676;23.432;2024-03-17T12:22:08;14.11;46.33
84330;SHT31;74510;42.676;23.432;2024-03-17T12:24:35;14.11;47.23
84330;SHT31;74510;42.676;23.432;2024-03-17T12:27:04;14.22;46.70
84330;SHT31;74510;42.676;23.432;2024-03-17T12:29:39;14.28;46.66
84330;SHT31;74510;42.676;23.432;2024-03-17T12:32:18;14.30;47.10
84330;SHT31;74510;42.676;23.432;2024-03-17T12:34:45;14.30;45.33
84330;SHT31;74510;42.676;23.432;2024-03-17T12:37:22;14.18;47.22
84330;SHT31;74510;42.676;23.432;2024-03-17T12:39:48;14.04;47.84
84330;SHT31;74510;42.676;23.432;2024-03-17T12:42:15;13.98;48.29
84330;SHT31;74510;42.676;23.432;2024-03-17T12:44:50;13.86;47.83
84330;SHT31;74510;42.676;23.432;2024-03-17T12:47:17;13.91;47.09
84330;SHT31;74510;42.676;23.432;2024-03-17T12:49:59;14.05;46.81
84330;SHT31;74510;42.676;23.432;2024-03-17T12:55:17;14.22;47.01
84330;SHT31;74510;42.676;23.432;2024-03-17T13:00:46;14.19;47.91
84330;SHT31;74510;42.676;23.432;2024-03-17T13:03:23;14.25;48.82
84330;SHT31;74510;42.676;23.432;2024-03-17T13:05:49;14.59;50.46
84330;SHT31;74510;42.676;23.432;2024-03-17T13:08:14;14.73;51.99
84330;SHT31;74510;42.676;23.432;2024-03-17T13:10:41;14.55;49.60
84330;SHT31;74510;42.676;23.432;2024-03-17T13:13:08;14.30;51.02
84330;SHT31;74510;42.676;23.432;2024-03-17T13:15:34;14.37;51.20
84330;SHT31;74510;42.676;23.432;2024-03-17T13:18:04;14.25;50.18
84330;SHT31;74510;42.676;23.432;2024-03-17T13:20:30;14.13;51.44
84330;SHT31;74510;42.676;23.432;2024-03-17T13:22:57;13.88;51.89
84330;SHT31;74510;42.676;23.432;2024-03-17T13:25:24;13.95;50.97
84330;SHT31;74510;42.676;23.432;2024-03-17T13:27:52;13.85;50.86
84330;SHT31;74510;42.676;23.432;2024-03-17T13:30:19;13.81;51.55
84330;SHT31;74510;42.676;23.432;2024-03-17T13:32:45;13.74;52.08
84330;SHT31;74510;42.676;23.432;2024-03-17T13:35:21;13.53;52.90
84330;SHT31;74510;42.676;23.432;2024-03-17T13:37:48;13.61;52.74
84330;SHT31;74510;42.676;23.432;2024-03-17T13:40:16;13.57;51.94
84330;SHT31;74510;42.676;23.432;2024-03-17T13:42:44;13.53;52.33
84330;SHT31;74510;42.676;23.432;2024-03-17T13:45:11;13.51;53.41
84330;SHT31;74510;42.676;23.432;2024-03-17T13:47:38;13.50;53.44
84330;SHT31;74510;42.676;23.432;2024-03-17T13:50:04;13.55;54.71
84330;SHT31;74510;42.676;23.432;2024-03-17T13:52:34;13.55;54.59
84330;SHT31;74510;42.676;23.432;2024-03-17T13:55:00;13.39;53.22
84330;SHT31;74510;42.676;23.432;2024-03-17T13:57:25;13.24;54.82
84330;SHT31;74510;42.676;23.432;2024-03-17T13:59:50;13.37;54.36
84330;SHT31;74510;42.676;23.432;2024-03-17T14:02:17;13.30;54.41
84330;SHT31;74510;42.676;23.432;2024-03-17T14:04:43;13.24;55.61
84330;SHT31;74510;42.676;23.432;2024-03-17T14:07:09;13.10;56.28
84330;SHT31;74510;42.676;23.432;2024-03-17T14:09:34;13.14;56.02
84330;SHT31;74510;42.676;23.432;2024-03-17T14:12:00;13.23;55.26
84330;SHT31;74510;42.676;23.432;2024-03-17T14:14:25;13.09;55.90
84330;SHT31;74510;42.676;23.432;2024-03-17T14:16:51;13.03;56.07
84330;SHT31;74510;42.676;23.432;2024-03-17T14:19:16;12.99;56.68
84330;SHT31;74510;42.676;23.432;2024-03-17T14:21:41;12.86;56.11
84330;SHT31;74510;42.676;23.432;2024-03-17T14:24:07;12.76;56.86
84330;SHT31;74510;42.676;23.432;2024-03-17T14:26:34;12.79;57.76
84330;SHT31;74510;42.676;23.432;2024-03-17T14:29:02;12.82;57.89
84330;SHT31;74510;42.676;23.432;2024-03-17T14:31:32;12.78;57.50
84330;SHT31;74510;42.676;23.432;2024-03-17T14:34:00;12.66;57.09
84330;SHT31;74510;42.676;23.432;2024-03-17T14:36:26;12.65;57.14
84330;SHT31;74510;42.676;23.432;2024-03-17T14:38:53;12.65;57.67
84330;SHT31;74510;42.676;23.432;2024-03-17T14:41:19;12.74;57.51
84330;SHT31;74510;42.676;23.432;2024-03-17T14:43:45;12.71;57.93
84330;SHT31;74510;42.676;23.432;2024-03-17T14:46:11;12.65;57.94
84330;SHT31;74510;42.676;23.432;2024-03-17T14:48:41;12.72;58.35
84330;SHT31;74510;42.676;23.432;2024-03-17T14:51:08;12.81;58.18
84330;SHT31;74510;42.676;23.432;2024-03-17T14:53:34;12.81;57.90
84330;SHT31;74510;42.676;23.432;2024-03-17T14:56:02;12.89;58.16
84330;SHT31;74510;42.676;23.432;2024-03-17T14:58:27;13.03;58.03
84330;SHT31;74510;42.676;23.432;2024-03-17T15:00:53;13.09;57.90
84330;SHT31;74510;42.676;23.432;2024-03-17T15:03:18;13.09;58.43
84330;SHT31;74510;42.676;23.432;2024-03-17T15:05:44;13.06;58.80
84330;SHT31;74510;42.676;23.432;2024-03-17T15:08:09;13.14;58.59
84330;SHT31;74510;42.676;23.432;2024-03-17T15:10:35;13.10;58.53
84330;SHT31;74510;42.676;23.432;2024-03-17T15:13:01;13.10;57.82
84330;SHT31;74510;42.676;23.432;2024-03-17T15:15:27;13.06;58.81
84330;SHT31;74510;42.676;23.432;2024-03-17T15:17:53;13.12;58.24
84330;SHT31;74510;42.676;23.432;2024-03-17T15:20:19;13.16;59.04
84330;SHT31;74510;42.676;23.432;2024-03-17T15:22:47;13.05;59.14
84330;SHT31;74510;42.676;23.432;2024-03-17T15:25:14;13.06;59.24
84330;SHT31;74510;42.676;23.432;2024-03-17T15:27:41;13.16;59.00
84330;SHT31;74510;42.676;23.432;2024-03-17T15:30:11;13.36;58.97
84330;SHT31;74510;42.676;23.432;2024-03-17T15:32:36;13.12;60.18
84330;SHT31;74510;42.676;23.432;2024-03-17T15:35:02;12.95;60.83
84330;SHT31;74510;42.676;23.432;2024-03-17T15:37:28;12.76;61.14
84330;SHT31;74510;42.676;23.432;2024-03-17T15:39:53;12.69;61.52
84330;SHT31;74510;42.676;23.432;2024-03-17T15:42:21;12.69;61.82